createdAt,value
2018-02-23T00:00:22.976Z,97937.83
2018-02-23T00:02:50.832Z,97935.37
2018-02-23T00:05:18.494Z,97934.83
2018-02-23T00:07:48.901Z,97939.36
2018-02-23T00:10:16.828Z,97937.77
2018-02-23T00:12:45.112Z,97942.52
2018-02-23T00:15:12.823Z,97943.17
2018-02-23T00:17:41.553Z,97933.30
2018-02-23T00:20:09.238Z,97945.33
2018-02-23T00:22:43.148Z,97943.42
2018-02-23T00:25:12.623Z,97939.89
2018-02-23T00:27:40.190Z,97938.70
2018-02-23T00:30:07.995Z,97937.88
2018-02-23T00:32:35.637Z,97934.98
2018-02-23T00:35:03.197Z,97931.58
2018-02-23T00:37:30.831Z,97931.30
2018-02-23T00:39:58.615Z,97938.63
2018-02-23T00:42:26.206Z,97939.06
2018-02-23T00:44:53.876Z,97931.44
2018-02-23T00:47:21.717Z,97937.03
2018-02-23T00:49:49.468Z,97932.23
2018-02-23T00:52:17.022Z,97940.70
2018-02-23T00:54:44.712Z,97936.66
2018-02-23T00:57:12.931Z,97935.52
2018-02-23T00:59:40.507Z,97921.57
2018-02-23T01:02:08.097Z,97932.69
2018-02-23T01:04:35.778Z,97934.81
2018-02-23T01:07:03.333Z,97927.39
2018-02-23T01:09:31.135Z,97918.83
2018-02-23T01:11:58.712Z,97917.34
2018-02-23T01:14:26.481Z,97910.93
2018-02-23T01:16:54.035Z,97921.33
2018-02-23T01:19:22.252Z,97913.13
2018-02-23T01:21:50.041Z,97915.99
2018-02-23T01:24:17.758Z,97910.34
2018-02-23T01:26:45.402Z,97910.52
2018-02-23T01:29:13.197Z,97911.05
2018-02-23T01:31:40.788Z,97909.50
2018-02-23T01:34:08.387Z,97907.83
2018-02-23T01:36:35.920Z,97909.45
2018-02-23T01:39:03.599Z,97910.48
2018-02-23T01:41:31.201Z,97907.99
2018-02-23T01:43:58.936Z,97902.97
2018-02-23T01:46:26.496Z,97907.25
2018-02-23T01:48:54.028Z,97896.69
2018-02-23T01:51:21.826Z,97886.86
2018-02-23T01:53:49.490Z,97894.79
2018-02-23T01:56:17.092Z,97892.36
2018-02-23T01:58:44.951Z,97885.73
2018-02-23T02:01:12.756Z,97887.64
2018-02-23T02:03:40.293Z,97893.28
2018-02-23T02:06:07.946Z,97886.83
2018-02-23T02:08:36.321Z,97884.63
2018-02-23T02:11:04.011Z,97881.91
2018-02-23T02:13:31.698Z,97879.58
2018-02-23T02:15:59.347Z,97878.12
2018-02-23T02:18:27.026Z,97881.38
2018-02-23T02:20:54.818Z,97886.31
2018-02-23T02:23:22.496Z,97876.51
2018-02-23T02:25:50.420Z,97873.48
2018-02-23T02:28:17.955Z,97881.58
2018-02-23T02:30:46.488Z,97880.95
2018-02-23T02:33:14.075Z,97872.81
2018-02-23T02:35:41.836Z,97868.77
2018-02-23T02:38:09.820Z,97866.41
2018-02-23T02:40:37.735Z,97872.88
2018-02-23T02:43:05.589Z,97864.63
2018-02-23T02:45:33.332Z,97863.79
2018-02-23T02:48:00.982Z,97867.44
2018-02-23T02:50:28.572Z,97871.09
2018-02-23T02:52:56.287Z,97869.54
2018-02-23T02:55:23.918Z,97868.38
2018-02-23T02:57:51.766Z,97869.46
2018-02-23T03:00:19.887Z,97869.04
2018-02-23T03:02:47.816Z,97869.99
2018-02-23T03:05:15.634Z,97879.69
2018-02-23T03:07:43.392Z,97863.83
2018-02-23T03:10:11.036Z,97862.94
2018-02-23T03:12:38.598Z,97871.59
2018-02-23T03:15:06.291Z,97863.87
2018-02-23T03:17:33.983Z,97863.24
2018-02-23T03:20:02.451Z,97859.48
2018-02-23T03:22:30.801Z,97860.17
2018-02-23T03:24:58.723Z,97867.23
2018-02-23T03:27:26.558Z,97858.80
2018-02-23T03:29:54.236Z,97862.31
2018-02-23T03:32:22.001Z,97865.61
2018-02-23T03:34:49.738Z,97860.34
2018-02-23T03:37:17.356Z,97857.92
2018-02-23T03:39:45.233Z,97855.16
2018-02-23T03:42:12.823Z,97855.80
2018-02-23T03:44:40.566Z,97855.86
2018-02-23T03:47:08.271Z,97864.22
2018-02-23T03:49:37.948Z,97864.56
2018-02-23T03:52:05.603Z,97865.20
2018-02-23T03:54:33.453Z,97863.05
2018-02-23T03:57:01.008Z,97862.20
2018-02-23T03:59:28.648Z,97868.38
2018-02-23T04:01:56.846Z,97867.41
2018-02-23T04:04:24.381Z,97866.93
2018-02-23T04:06:51.948Z,97861.97
2018-02-23T04:09:19.519Z,97863.37
2018-02-23T04:11:47.337Z,97863.59
2018-02-23T04:14:14.916Z,97862.31
2018-02-23T04:16:42.491Z,97862.73
2018-02-23T04:19:10.293Z,97858.89
2018-02-23T04:21:37.936Z,97860.28
2018-02-23T04:24:05.509Z,97853.95
2018-02-23T04:26:33.166Z,97852.50
2018-02-23T04:29:01.032Z,97864.84
2018-02-23T04:31:28.647Z,97860.48
2018-02-23T04:33:56.591Z,97860.75
2018-02-23T04:36:24.188Z,97856.35
2018-02-23T04:38:52.437Z,97859.00
2018-02-23T04:41:20.156Z,97860.80
2018-02-23T04:43:47.687Z,97868.77
2018-02-23T04:46:15.468Z,97863.28
2018-02-23T04:48:43.036Z,97867.34
2018-02-23T04:51:10.646Z,97862.04
2018-02-23T04:53:38.254Z,97862.50
2018-02-23T04:56:06.192Z,97861.22
2018-02-23T04:58:33.788Z,97871.16
2018-02-23T05:01:01.597Z,97866.59
2018-02-23T05:03:29.627Z,97865.23
2018-02-23T05:05:57.437Z,97857.64
2018-02-23T05:08:25.357Z,97861.26
2018-02-23T05:10:53.212Z,97865.03
2018-02-23T05:13:20.923Z,97871.88
2018-02-23T05:15:48.798Z,97875.30
2018-02-23T05:18:16.472Z,97870.98
2018-02-23T05:20:44.156Z,97873.80
2018-02-23T05:23:11.874Z,97874.92
2018-02-23T05:25:40.166Z,97873.50
2018-02-23T05:28:08.176Z,97875.41
2018-02-23T05:30:35.888Z,97871.77
2018-02-23T05:33:03.822Z,97875.70
2018-02-23T05:35:31.451Z,97872.30
2018-02-23T05:37:59.143Z,97867.02
2018-02-23T05:40:27.126Z,97860.69
2018-02-23T05:42:54.693Z,97865.92
2018-02-23T05:45:22.442Z,97870.19
2018-02-23T05:47:50.371Z,97869.40
2018-02-23T05:50:17.968Z,97873.72
2018-02-23T05:52:45.702Z,97866.90
2018-02-23T05:55:13.328Z,97873.86
2018-02-23T05:57:40.994Z,97874.12
2018-02-23T06:00:08.687Z,97875.98
2018-02-23T06:02:36.391Z,97873.81
2018-02-23T06:05:04.149Z,97869.59
2018-02-23T06:07:32.107Z,97877.08
2018-02-23T06:09:59.829Z,97872.36
2018-02-23T06:12:27.517Z,97879.16
2018-02-23T06:14:55.271Z,97878.31
2018-02-23T06:17:28.536Z,97880.53
2018-02-23T06:20:01.681Z,97882.22
2018-02-23T06:22:29.251Z,97892.13
2018-02-23T06:24:57.007Z,97883.13
2018-02-23T06:27:24.556Z,97892.13
2018-02-23T06:29:52.351Z,97890.09
2018-02-23T06:32:20.048Z,97895.19
2018-02-23T06:34:47.759Z,97894.19
2018-02-23T06:37:15.498Z,97890.33
2018-02-23T06:39:43.090Z,97894.55
2018-02-23T06:42:10.824Z,97893.22
2018-02-23T06:44:38.497Z,97889.75
2018-02-23T06:47:12.097Z,97887.48
2018-02-23T06:49:39.803Z,97894.80
2018-02-23T06:52:07.572Z,97890.88
2018-02-23T06:54:35.337Z,97892.48
2018-02-23T06:57:03.092Z,97894.03
2018-02-23T06:59:30.779Z,97897.41
2018-02-23T07:01:58.685Z,97900.55
2018-02-23T07:04:26.353Z,97904.93
2018-02-23T07:06:54.097Z,97907.01
2018-02-23T07:09:21.891Z,97908.83
2018-02-23T07:11:49.883Z,97911.97
2018-02-23T07:14:17.588Z,97917.29
2018-02-23T07:16:45.321Z,97917.78
2018-02-23T07:19:13.016Z,97921.02
2018-02-23T07:21:40.783Z,97921.54
2018-02-23T07:24:08.677Z,97923.09
2018-02-23T07:26:36.284Z,97924.77
2018-02-23T07:29:03.822Z,97918.13
2018-02-23T07:31:31.410Z,97922.91
2018-02-23T07:33:58.987Z,97913.81
2018-02-23T07:36:26.821Z,97917.52
2018-02-23T07:38:55.007Z,97917.63
2018-02-23T07:41:22.573Z,97918.02
2018-02-23T07:43:50.321Z,97926.63
2018-02-23T07:46:17.964Z,97921.45
2018-02-23T07:48:45.697Z,97919.77
2018-02-23T07:51:14.469Z,97929.23
2018-02-23T07:53:42.063Z,97920.70
2018-02-23T07:56:09.832Z,97931.93
2018-02-23T07:58:37.706Z,97928.22
2018-02-23T08:01:05.418Z,97938.98
2018-02-23T08:03:33.198Z,97937.56
2018-02-23T08:06:00.942Z,97938.42
2018-02-23T08:08:28.533Z,97950.42
2018-02-23T08:10:56.473Z,97951.00
2018-02-23T08:13:24.756Z,97954.02
2018-02-23T08:15:52.453Z,97951.98
2018-02-23T08:18:20.003Z,97956.26
2018-02-23T08:20:47.653Z,97945.84
2018-02-23T08:23:15.492Z,97942.78
2018-02-23T08:25:43.111Z,97938.59
2018-02-23T08:28:10.893Z,97936.33
2018-02-23T08:30:38.886Z,97944.13
2018-02-23T08:33:07.118Z,97944.14
2018-02-23T08:35:35.054Z,97947.08
2018-02-23T08:38:02.779Z,97950.65
2018-02-23T08:40:30.576Z,97951.72
2018-02-23T08:42:58.150Z,97956.55
2018-02-23T08:45:26.426Z,97953.58
2018-02-23T08:47:54.033Z,97950.35
2018-02-23T08:50:21.615Z,97949.08
2018-02-23T08:52:49.152Z,97947.06
2018-02-23T08:55:16.972Z,97951.06
2018-02-23T08:57:44.831Z,97947.45
2018-02-23T09:00:19.559Z,97946.16
2018-02-23T09:02:47.430Z,97946.22
2018-02-23T09:05:15.098Z,97941.36
2018-02-23T09:07:42.752Z,97938.61
2018-02-23T09:10:10.351Z,97941.80
2018-02-23T09:12:38.144Z,97952.48
2018-02-23T09:15:05.832Z,97948.53
2018-02-23T09:17:33.707Z,97947.05
2018-02-23T09:20:01.335Z,97948.33
2018-02-23T09:22:29.012Z,97954.52
2018-02-23T09:24:56.623Z,97954.92
2018-02-23T09:27:24.196Z,97955.27
2018-02-23T09:29:51.887Z,97964.52
2018-02-23T09:32:32.058Z,97955.78
2018-02-23T09:35:00.234Z,97966.13
2018-02-23T09:37:27.862Z,97963.06
2018-02-23T09:39:56.138Z,97959.59
2018-02-23T09:42:23.732Z,97969.08
2018-02-23T09:44:56.398Z,97967.63
2018-02-23T09:47:24.042Z,97975.38
2018-02-23T09:49:51.633Z,97976.06
2018-02-23T09:52:20.176Z,97979.05
2018-02-23T09:54:47.884Z,97972.66
2018-02-23T09:57:15.552Z,97977.19
2018-02-23T09:59:43.291Z,97971.19
2018-02-23T10:02:10.932Z,97987.36
2018-02-23T10:04:38.711Z,97981.91
2018-02-23T10:07:06.273Z,97985.93
2018-02-23T10:09:34.021Z,97980.68
2018-02-23T10:12:01.911Z,97980.09
2018-02-23T10:14:30.142Z,97978.27
2018-02-23T10:16:58.168Z,97979.16
2018-02-23T10:19:25.859Z,97975.79
2018-02-23T10:21:53.786Z,97974.08
2018-02-23T10:24:21.751Z,97981.48
2018-02-23T10:26:49.548Z,97986.23
2018-02-23T10:29:17.097Z,97987.67
2018-02-23T10:31:44.757Z,97980.22
2018-02-23T10:34:12.788Z,97970.00
2018-02-23T10:36:40.487Z,97976.92
2018-02-23T10:39:08.399Z,97975.66
2018-02-23T10:41:36.776Z,97972.31
2018-02-23T10:44:04.776Z,97974.38
2018-02-23T10:46:32.383Z,97966.08
2018-02-23T10:49:00.116Z,97963.06
2018-02-23T10:51:27.931Z,97959.95
2018-02-23T10:53:55.673Z,97962.21
2018-02-23T10:56:23.582Z,97971.05
2018-02-23T10:58:51.678Z,97973.29
2018-02-23T11:01:19.313Z,97967.95
2018-02-23T11:03:47.158Z,97967.67
2018-02-23T11:06:15.038Z,97957.81
2018-02-23T11:08:42.763Z,97953.69
2018-02-23T11:11:10.397Z,97953.91
2018-02-23T11:13:38.319Z,97962.08
2018-02-23T11:16:06.873Z,97967.78
2018-02-23T11:18:34.534Z,97967.68
2018-02-23T11:21:02.199Z,97966.67
2018-02-23T11:23:29.906Z,97958.92
2018-02-23T11:25:57.584Z,97954.19
2018-02-23T11:28:25.233Z,97948.87
2018-02-23T11:30:52.872Z,97948.37
2018-02-23T11:33:20.644Z,97949.73
2018-02-23T11:35:48.323Z,97947.22
2018-02-23T11:38:16.083Z,97943.23
2018-02-23T11:40:43.742Z,97939.89
2018-02-23T11:43:11.372Z,97942.19
2018-02-23T11:45:39.270Z,97935.45
2018-02-23T11:48:06.822Z,97924.12
2018-02-23T11:50:34.700Z,97926.52
2018-02-23T11:53:02.294Z,97932.50
2018-02-23T11:55:30.037Z,97926.95
2018-02-23T11:58:09.412Z,97926.53
2018-02-23T12:00:37.319Z,97925.19
2018-02-23T12:03:05.582Z,97925.38
2018-02-23T12:05:34.412Z,97914.26
2018-02-23T12:08:02.358Z,97912.05
2018-02-23T12:10:32.049Z,97918.97
2018-02-23T12:12:59.727Z,97915.81
2018-02-23T12:15:27.424Z,97930.80
2018-02-23T12:17:55.261Z,97928.94
2018-02-23T12:20:23.024Z,97934.77
2018-02-23T12:22:50.576Z,97928.84
2018-02-23T12:25:18.288Z,97937.17
2018-02-23T12:27:46.859Z,97927.53
2018-02-23T12:34:00.603Z,97936.27
2018-02-23T12:36:28.731Z,97932.96
2018-02-23T12:38:58.307Z,97927.82
2018-02-23T12:41:26.168Z,97922.91
2018-02-23T12:43:53.751Z,97924.91
2018-02-23T12:46:21.339Z,97925.09
2018-02-23T12:48:49.636Z,97917.02
2018-02-23T12:51:17.434Z,97928.55
2018-02-23T12:53:45.201Z,97913.69
2018-02-23T12:56:12.766Z,97926.48
2018-02-23T12:58:40.392Z,97922.86
2018-02-23T13:01:08.157Z,97933.37
2018-02-23T13:03:35.731Z,97932.77
2018-02-23T13:06:04.254Z,97928.90
2018-02-23T13:08:31.822Z,97929.04
2018-02-23T13:10:59.421Z,97931.12
2018-02-23T13:13:27.079Z,97931.64
2018-02-23T13:15:54.859Z,97943.14
2018-02-23T13:18:22.472Z,97949.56
2018-02-23T13:20:50.147Z,97935.61
2018-02-23T13:23:17.889Z,97917.85
2018-02-23T13:25:45.712Z,97919.11
2018-02-23T13:28:18.978Z,97921.73
2018-02-23T13:30:46.524Z,97922.80
2018-02-23T13:33:14.542Z,97921.06
2018-02-23T13:35:42.413Z,97924.70
2018-02-23T13:38:10.128Z,97905.61
2018-02-23T13:40:37.892Z,97896.15
2018-02-23T13:43:05.448Z,97900.03
2018-02-23T13:45:33.092Z,97888.31
2018-02-23T13:48:00.708Z,97897.41
2018-02-23T13:50:28.652Z,97889.76
2018-02-23T13:52:56.416Z,97896.77
2018-02-23T13:55:24.231Z,97895.72
2018-02-23T13:57:51.851Z,97895.30
2018-02-23T14:00:19.483Z,97901.01
2018-02-23T14:02:47.067Z,97901.23
2018-02-23T14:05:14.996Z,97891.57
2018-02-23T14:07:43.517Z,97906.05
2018-02-23T14:10:11.277Z,97908.11
2018-02-23T14:12:39.064Z,97901.00
2018-02-23T14:15:06.866Z,97899.92
2018-02-23T14:17:34.551Z,97901.52
2018-02-23T14:20:02.648Z,97902.77
2018-02-23T14:22:30.571Z,97898.89
2018-02-23T14:24:58.147Z,97896.14
2018-02-23T14:27:25.973Z,97903.05
2018-02-23T14:29:53.611Z,97901.16
2018-02-23T14:32:21.759Z,97901.62
2018-02-23T14:34:49.469Z,97892.86
2018-02-23T14:37:17.019Z,97887.24
2018-02-23T14:39:44.735Z,97876.59
2018-02-23T14:42:12.453Z,97880.72
2018-02-23T14:44:42.219Z,97883.53
2018-02-23T14:47:10.083Z,97881.47
2018-02-23T14:49:50.094Z,97875.81
2018-02-23T14:52:17.674Z,97867.78
2018-02-23T14:54:45.664Z,97869.17
2018-02-23T14:57:13.374Z,97870.64
2018-02-23T14:59:41.052Z,97868.33
2018-02-23T15:02:08.588Z,97863.38
2018-02-23T15:04:36.376Z,97859.03
2018-02-23T15:07:04.735Z,97874.55
2018-02-23T15:09:32.348Z,97871.46
2018-02-23T15:11:59.919Z,97871.56
2018-02-23T15:14:27.562Z,97864.99
2018-02-23T15:16:55.262Z,97862.95
2018-02-23T15:19:22.844Z,97863.11
2018-02-23T15:21:51.138Z,97867.16
2018-02-23T15:24:18.867Z,97871.39
2018-02-23T15:26:46.639Z,97868.19
2018-02-23T15:29:14.295Z,97877.92
2018-02-23T15:31:54.014Z,97876.23
2018-02-23T15:34:22.340Z,97882.95
2018-02-23T15:36:50.454Z,97883.39
2018-02-23T15:39:18.019Z,97884.53
2018-02-23T15:41:45.976Z,97883.91
2018-02-23T15:44:13.554Z,97891.23
2018-02-23T15:46:41.349Z,97886.16
2018-02-23T15:49:14.808Z,97876.84
2018-02-23T15:51:57.569Z,97873.78
2018-02-23T15:54:25.414Z,97883.45
2018-02-23T15:56:53.298Z,97882.63
2018-02-23T15:59:21.063Z,97880.70
2018-02-23T16:01:48.829Z,97887.24
2018-02-23T16:04:16.805Z,97884.38
2018-02-23T16:06:44.408Z,97890.22
2018-02-23T16:09:12.239Z,97886.40
2018-02-23T16:11:40.193Z,97889.98
2018-02-23T16:14:07.884Z,97889.57
2018-02-23T16:16:35.623Z,97891.36
2018-02-23T16:19:03.666Z,97896.80
2018-02-23T16:21:31.629Z,97890.50
2018-02-23T16:23:59.172Z,97891.44
2018-02-23T16:26:27.040Z,97896.44
2018-02-23T16:28:54.853Z,97902.39
2018-02-23T16:31:22.614Z,97900.30
2018-02-23T16:33:50.242Z,97895.80
2018-02-23T16:36:17.798Z,97894.34
2018-02-23T16:38:45.603Z,97898.90
2018-02-23T16:41:13.228Z,97900.59
2018-02-23T16:43:41.089Z,97897.89
2018-02-23T16:46:08.805Z,97899.58
2018-02-23T16:48:36.708Z,97910.17
2018-02-23T16:51:04.729Z,97905.47
2018-02-23T16:53:32.276Z,97912.01
2018-02-23T16:55:59.920Z,97905.89
2018-02-23T16:58:27.588Z,97910.88
2018-02-23T17:00:55.234Z,97919.79
2018-02-23T17:03:23.220Z,97924.34
2018-02-23T17:05:50.858Z,97932.19
2018-02-23T17:08:18.568Z,97934.08
2018-02-23T17:10:46.278Z,97935.09
2018-02-23T17:13:14.080Z,97936.83
2018-02-23T17:15:41.813Z,97937.39
2018-02-23T17:18:09.593Z,97931.52
2018-02-23T17:20:37.809Z,97934.83
2018-02-23T17:23:05.619Z,97940.81
2018-02-23T17:25:33.239Z,97945.64
2018-02-23T17:28:01.034Z,97942.72
2018-02-23T17:30:28.751Z,97946.70
2018-02-23T17:32:56.432Z,97946.81
2018-02-23T17:35:24.265Z,97944.31
2018-02-23T17:37:52.553Z,97948.87
2018-02-23T17:40:20.425Z,97934.31
2018-02-23T17:42:48.307Z,97943.43
2018-02-23T17:45:16.113Z,97940.31
2018-02-23T17:47:44.038Z,97929.52
2018-02-23T17:50:11.804Z,97931.29
2018-02-23T17:52:39.719Z,97935.22
2018-02-23T17:55:07.324Z,97933.59
2018-02-23T17:57:35.282Z,97931.02
2018-02-23T18:00:03.178Z,97931.20
2018-02-23T18:02:31.038Z,97933.80
2018-02-23T18:04:58.634Z,97937.59
2018-02-23T18:07:26.227Z,97935.09
2018-02-23T18:09:53.947Z,97938.11
2018-02-23T18:12:22.140Z,97934.27
2018-02-23T18:14:49.839Z,97933.80
2018-02-23T18:17:18.243Z,97919.92
2018-02-23T18:19:46.362Z,97919.84
2018-02-23T18:22:14.257Z,97926.50
2018-02-23T18:24:41.837Z,97918.05
2018-02-23T18:27:09.765Z,97915.39
2018-02-23T18:29:37.443Z,97922.55
2018-02-23T18:32:05.050Z,97922.97
2018-02-23T18:34:33.039Z,97933.81
2018-02-23T18:37:00.816Z,97931.42
2018-02-23T18:39:28.472Z,97931.38
2018-02-23T18:41:56.311Z,97932.94
2018-02-23T18:44:23.884Z,97931.91
2018-02-23T18:46:51.683Z,97934.31
2018-02-23T18:49:20.155Z,97933.09
2018-02-23T18:51:48.035Z,97934.31
2018-02-23T18:54:16.773Z,97937.29
2018-02-23T18:56:44.689Z,97936.42
2018-02-23T18:59:12.583Z,97926.70
2018-02-23T19:01:40.239Z,97926.22
2018-02-23T19:04:08.494Z,97919.43
2018-02-23T19:06:36.334Z,97920.24
2018-02-23T19:09:04.867Z,97920.87
2018-02-23T19:11:32.608Z,97917.12
2018-02-23T19:14:00.403Z,97916.30
2018-02-23T19:16:28.067Z,97918.75
2018-02-23T19:18:55.778Z,97919.34
2018-02-23T19:21:23.520Z,97927.26
2018-02-23T19:23:51.189Z,97928.13
2018-02-23T19:26:18.993Z,97935.60
2018-02-23T19:28:46.914Z,97929.38
2018-02-23T19:31:14.575Z,97934.28
2018-02-23T19:33:42.382Z,97944.77
2018-02-23T19:36:10.243Z,97941.14
2018-02-23T19:38:38.199Z,97942.77
2018-02-23T19:41:06.043Z,97933.61
2018-02-23T19:43:33.714Z,97945.53
2018-02-23T19:46:01.273Z,97948.20
2018-02-23T19:48:29.004Z,97949.47
2018-02-23T19:50:56.806Z,97946.50
2018-02-23T19:53:24.769Z,97951.98
2018-02-23T19:55:52.550Z,97946.41
2018-02-23T19:58:20.184Z,97957.62
2018-02-23T20:00:47.823Z,97955.41
2018-02-23T20:03:15.474Z,97962.73
2018-02-23T20:05:43.182Z,97964.89
2018-02-23T20:08:11.249Z,97970.10
2018-02-23T20:10:38.799Z,97965.44
2018-02-23T20:13:07.220Z,97951.05
2018-02-23T20:15:34.887Z,97965.79
2018-02-23T20:18:02.489Z,97964.41
2018-02-23T20:20:30.291Z,97965.59
2018-02-23T20:22:58.057Z,97972.65
2018-02-23T20:25:25.769Z,97974.77
2018-02-23T20:27:53.514Z,97978.91
2018-02-23T20:30:21.446Z,97971.61
2018-02-23T20:32:49.148Z,97976.38
2018-02-23T20:35:17.404Z,97975.30
2018-02-23T20:37:45.794Z,97973.36
2018-02-23T20:40:13.479Z,97973.34
2018-02-23T20:42:41.374Z,97971.80
2018-02-23T20:45:09.109Z,97980.86
2018-02-23T20:47:37.484Z,97971.67
2018-02-23T20:50:05.193Z,97974.42
2018-02-23T20:52:33.849Z,97973.02
2018-02-23T20:55:02.553Z,97973.05
2018-02-23T20:57:30.114Z,97974.09
2018-02-23T20:59:57.799Z,97980.72
2018-02-23T21:02:25.377Z,97984.30
2018-02-23T21:04:53.136Z,97990.09
2018-02-23T21:07:20.794Z,97984.80
2018-02-23T21:09:48.576Z,97988.70
2018-02-23T21:12:16.388Z,97983.22
2018-02-23T21:14:44.017Z,97979.97
2018-02-23T21:17:11.726Z,97975.41
2018-02-23T21:19:39.418Z,97967.94
2018-02-23T21:22:06.977Z,97965.87
2018-02-23T21:24:34.544Z,97966.45
2018-02-23T21:27:02.109Z,97966.80
2018-02-23T21:29:30.143Z,97973.40
2018-02-23T21:31:57.818Z,97970.58
2018-02-23T21:34:26.553Z,97967.62
2018-02-23T21:36:54.273Z,97968.24
2018-02-23T21:39:22.013Z,97964.15
2018-02-23T21:41:54.430Z,97969.88
2018-02-23T21:44:22.183Z,97976.38
2018-02-23T21:46:49.779Z,97975.81
2018-02-23T21:49:17.574Z,97966.14
2018-02-23T21:51:45.238Z,97965.17
2018-02-23T21:54:12.824Z,97964.47
2018-02-23T21:56:40.459Z,97966.72
2018-02-23T21:59:08.173Z,97967.09
2018-02-23T22:01:35.767Z,97965.25
2018-02-23T22:04:04.056Z,97963.17
2018-02-23T22:06:31.613Z,97975.70
2018-02-23T22:08:59.318Z,97972.47
2018-02-23T22:11:26.978Z,97975.95
2018-02-23T22:13:55.018Z,97973.34
2018-02-23T22:16:22.649Z,97970.69
2018-02-23T22:18:50.259Z,97977.14
2018-02-23T22:21:18.044Z,97975.00
2018-02-23T22:23:45.793Z,97980.50
2018-02-23T22:26:14.013Z,97972.69
2018-02-23T22:28:41.615Z,97971.90
2018-02-23T22:31:09.278Z,97977.27
2018-02-23T22:33:36.819Z,97977.56
2018-02-23T22:36:04.488Z,97978.67
2018-02-23T22:38:32.354Z,97975.02
2018-02-23T22:41:01.084Z,97975.19
2018-02-23T22:43:28.824Z,97973.01
2018-02-23T22:45:56.674Z,97972.80
2018-02-23T22:48:24.483Z,97969.78
2018-02-23T22:50:52.268Z,97981.94
2018-02-23T22:53:19.826Z,97981.48
2018-02-23T22:55:47.542Z,97975.31
2018-02-23T22:58:15.198Z,97977.88
2018-02-23T23:00:42.907Z,97972.66
2018-02-23T23:03:10.623Z,97979.77
2018-02-23T23:05:38.410Z,97970.72
2018-02-23T23:08:06.174Z,97972.51
2018-02-23T23:10:34.056Z,97972.91
2018-02-23T23:13:01.727Z,97980.65
2018-02-23T23:15:29.543Z,97973.25
2018-02-23T23:17:57.280Z,97975.06
2018-02-23T23:20:25.203Z,97981.38
2018-02-23T23:22:53.364Z,97980.41
2018-02-23T23:25:20.929Z,97969.70
2018-02-23T23:27:48.520Z,97975.69
2018-02-23T23:30:16.339Z,97977.72
2018-02-23T23:32:44.004Z,97976.73
2018-02-23T23:35:12.266Z,97981.00
2018-02-23T23:37:39.965Z,97973.10
2018-02-23T23:40:07.810Z,97968.48
2018-02-23T23:42:35.584Z,97969.47
2018-02-23T23:45:03.192Z,97976.77
2018-02-23T23:47:30.834Z,97972.29
2018-02-23T23:49:58.492Z,97985.68
2018-02-23T23:52:26.258Z,97985.08
2018-02-23T23:54:53.883Z,97983.80
2018-02-23T23:57:21.607Z,97995.86
2018-02-23T23:59:49.549Z,97997.84
